sensor_id;sensor_type;location;lat;lon;timestamp;pressure;altitude;pressure_sealevel;temperature;humidity
70546;BME280;58098;51.680;5.134;2022-12-18T00:01:02;102960.69;;;-3.25;100.00
70546;BME280;58098;51.680;5.134;2022-12-18T00:03:34;102962.31;;;-3.28;100.00
70546;BME280;58098;51.680;5.134;2022-12-18T00:06:01;102959.72;;;-3.33;100.00
70546;BME280;58098;51.680;5.134;2022-12-18T00:08:27;102963.13;;;-3.33;100.00
70546;BME280;58098;51.680;5.134;2022-12-18T00:10:53;102954.56;;;-3.38;100.00
70546;BME280;58098;51.680;5.134;2022-12-18T00:13:18;102944.25;;;-3.47;100.00
70546;BME280;58098;51.680;5.134;2022-12-18T00:15:44;102955.28;;;-3.48;100.00
70546;BME280;58098;51.680;5.134;2022-12-18T00:18:09;102936.47;;;-3.57;100.00
70546;BME280;58098;51.680;5.134;2022-12-18T00:20:39;102916.84;;;-3.63;100.00
70546;BME280;58098;51.680;5.134;2022-12-18T00:23:06;102916.81;;;-3.66;100.00
70546;BME280;58098;51.680;5.134;2022-12-18T00:25:35;102909.06;;;-3.75;100.00
70546;BME280;58098;51.680;5.134;2022-12-18T00:28:04;102926.91;;;-3.75;100.00
70546;BME280;58098;51.680;5.134;2022-12-18T00:30:30;102925.97;;;-3.78;100.00
70546;BME280;58098;51.680;5.134;2022-12-18T00:32:56;102908.84;;;-3.90;100.00
70546;BME280;58098;51.680;5.134;2022-12-18T00:35:22;102927.66;;;-3.80;100.00
70546;BME280;58098;51.680;5.134;2022-12-18T00:37:47;102926.81;;;-3.81;100.00
70546;BME280;58098;51.680;5.134;2022-12-18T00:40:12;102920.78;;;-3.86;100.00
70546;BME280;58098;51.680;5.134;2022-12-18T00:42:38;102928.53;;;-3.80;100.00
70546;BME280;58098;51.680;5.134;2022-12-18T00:45:23;102906.28;;;-3.90;100.00
70546;BME280;58098;51.680;5.134;2022-12-18T00:47:49;102896.03;;;-3.93;100.00
70546;BME280;58098;51.680;5.134;2022-12-18T00:50:14;102907.16;;;-3.88;100.00
70546;BME280;58098;51.680;5.134;2022-12-18T00:52:39;102901.16;;;-3.91;100.00
70546;BME280;58098;51.680;5.134;2022-12-18T00:55:05;102899.22;;;-4.09;100.00
70546;BME280;58098;51.680;5.134;2022-12-18T00:57:30;102900.69;;;-4.23;100.00
70546;BME280;58098;51.680;5.134;2022-12-18T00:59:56;102917.78;;;-4.18;100.00
70546;BME280;58098;51.680;5.134;2022-12-18T01:02:21;102906.53;;;-4.30;100.00
70546;BME280;58098;51.680;5.134;2022-12-18T01:04:46;102915.84;;;-4.34;100.00
70546;BME280;58098;51.680;5.134;2022-12-18T01:07:12;102927.66;;;-4.37;100.00
70546;BME280;58098;51.680;5.134;2022-12-18T01:09:37;102922.50;;;-4.42;100.00
70546;BME280;58098;51.680;5.134;2022-12-18T01:12:02;102941.19;;;-4.41;100.00
70546;BME280;58098;51.680;5.134;2022-12-18T01:14:28;102924.03;;;-4.53;100.00
70546;BME280;58098;51.680;5.134;2022-12-18T01:16:53;102907.69;;;-4.65;100.00
70546;BME280;58098;51.680;5.134;2022-12-18T01:19:18;102919.47;;;-4.71;100.00
70546;BME280;58098;51.680;5.134;2022-12-18T01:21:44;102928.81;;;-4.70;100.00
70546;BME280;58098;51.680;5.134;2022-12-18T01:24:11;102939.72;;;-4.77;100.00
70546;BME280;58098;51.680;5.134;2022-12-18T01:26:37;102934.50;;;-4.84;100.00
70546;BME280;58098;51.680;5.134;2022-12-18T01:29:02;102930.13;;;-4.91;100.00
70546;BME280;58098;51.680;5.134;2022-12-18T01:31:30;102931.78;;;-4.95;100.00
70546;BME280;58098;51.680;5.134;2022-12-18T01:33:56;102927.34;;;-5.03;100.00
70546;BME280;58098;51.680;5.134;2022-12-18T01:36:24;102914.38;;;-5.18;100.00
70546;BME280;58098;51.680;5.134;2022-12-18T01:38:50;102929.66;;;-5.17;100.00
70546;BME280;58098;51.680;5.134;2022-12-18T01:41:18;102918.38;;;-5.29;100.00
70546;BME280;58098;51.680;5.134;2022-12-18T01:43:47;102936.25;;;-5.26;100.00
70546;BME280;58098;51.680;5.134;2022-12-18T01:46:14;102937.88;;;-5.30;100.00
70546;BME280;58098;51.680;5.134;2022-12-18T01:48:40;102944.63;;;-5.32;100.00
70546;BME280;58098;51.680;5.134;2022-12-18T01:51:08;102936.03;;;-5.37;100.00
70546;BME280;58098;51.680;5.134;2022-12-18T01:53:36;102923.91;;;-5.50;100.00
70546;BME280;58098;51.680;5.134;2022-12-18T01:56:02;102925.69;;;-5.46;100.00
70546;BME280;58098;51.680;5.134;2022-12-18T01:58:35;102929.84;;;-5.50;100.00
70546;BME280;58098;51.680;5.134;2022-12-18T02:01:04;102925.59;;;-5.51;100.00
70546;BME280;58098;51.680;5.134;2022-12-18T02:03:30;102922.88;;;-5.60;100.00
70546;BME280;58098;51.680;5.134;2022-12-18T02:08:31;102925.28;;;-5.64;100.00
70546;BME280;58098;51.680;5.134;2022-12-18T02:11:03;102925.25;;;-5.67;100.00
70546;BME280;58098;51.680;5.134;2022-12-18T02:13:38;102916.66;;;-5.72;100.00
70546;BME280;58098;51.680;5.134;2022-12-18T02:18:41;102905.47;;;-5.82;100.00
70546;BME280;58098;51.680;5.134;2022-12-18T02:26:43;102912.94;;;-5.89;100.00
70546;BME280;58098;51.680;5.134;2022-12-18T02:29:21;102900.81;;;-6.01;100.00
70546;BME280;58098;51.680;5.134;2022-12-18T02:31:54;102904.28;;;-5.97;100.00
70546;BME280;58098;51.680;5.134;2022-12-18T02:34:22;102911.88;;;-5.99;100.00
70546;BME280;58098;51.680;5.134;2022-12-18T02:36:50;102892.09;;;-6.14;100.00
70546;BME280;58098;51.680;5.134;2022-12-18T02:39:17;102895.44;;;-6.15;100.00
70546;BME280;58098;51.680;5.134;2022-12-18T02:41:43;102904.88;;;-6.09;100.00
70546;BME280;58098;51.680;5.134;2022-12-18T02:44:11;102872.22;;;-6.30;100.00
70546;BME280;58098;51.680;5.134;2022-12-18T02:46:49;102897.06;;;-6.18;100.00
70546;BME280;58098;51.680;5.134;2022-12-18T02:49:40;102908.13;;;-6.16;100.00
70546;BME280;58098;51.680;5.134;2022-12-18T02:55:28;102910.56;;;-6.21;100.00
70546;BME280;58098;51.680;5.134;2022-12-18T02:58:17;102913.91;;;-6.22;100.00
70546;BME280;58098;51.680;5.134;2022-12-18T03:03:59;102889.97;;;-6.33;100.00
70546;BME280;58098;51.680;5.134;2022-12-18T03:06:30;102887.28;;;-6.37;100.00
70546;BME280;58098;51.680;5.134;2022-12-18T03:09:04;102876.03;;;-6.50;100.00
70546;BME280;58098;51.680;5.134;2022-12-18T03:11:34;102874.28;;;-6.51;100.00
70546;BME280;58098;51.680;5.134;2022-12-18T03:14:21;102866.50;;;-6.58;100.00
70546;BME280;58098;51.680;5.134;2022-12-18T03:16:54;102861.31;;;-6.63;100.00
70546;BME280;58098;51.680;5.134;2022-12-18T03:19:27;102861.19;;;-6.67;100.00
70546;BME280;58098;51.680;5.134;2022-12-18T03:21:56;102872.41;;;-6.59;100.00
70546;BME280;58098;51.680;5.134;2022-12-18T03:24:23;102859.44;;;-6.70;100.00
70546;BME280;58098;51.680;5.134;2022-12-18T03:26:53;102873.00;;;-6.69;100.00
70546;BME280;58098;51.680;5.134;2022-12-18T03:29:24;102877.41;;;-6.62;100.00
70546;BME280;58098;51.680;5.134;2022-12-18T03:31:55;102878.13;;;-6.66;100.00
70546;BME280;58098;51.680;5.134;2022-12-18T03:34:26;102880.63;;;-6.68;100.00
70546;BME280;58098;51.680;5.134;2022-12-18T03:36:54;102866.97;;;-6.73;100.00
70546;BME280;58098;51.680;5.134;2022-12-18T03:39:20;102868.72;;;-6.72;100.00
70546;BME280;58098;51.680;5.134;2022-12-18T03:41:56;102866.91;;;-6.76;100.00
70546;BME280;58098;51.680;5.134;2022-12-18T03:44:29;102863.53;;;-6.77;100.00
70546;BME280;58098;51.680;5.134;2022-12-18T03:47:11;102860.13;;;-6.77;100.00
70546;BME280;58098;51.680;5.134;2022-12-18T03:50:02;102851.63;;;-6.79;100.00
70546;BME280;58098;51.680;5.134;2022-12-18T03:52:41;102855.78;;;-6.81;100.00
70546;BME280;58098;51.680;5.134;2022-12-18T03:55:10;102852.41;;;-6.82;100.00
70546;BME280;58098;51.680;5.134;2022-12-18T03:57:37;102852.31;;;-6.85;100.00
70546;BME280;58098;51.680;5.134;2022-12-18T04:00:12;102825.03;;;-6.95;100.00
70546;BME280;58098;51.680;5.134;2022-12-18T04:02:41;102824.34;;;-6.88;100.00
70546;BME280;58098;51.680;5.134;2022-12-18T04:05:09;102831.16;;;-6.85;100.00
70546;BME280;58098;51.680;5.134;2022-12-18T04:07:36;102837.03;;;-6.88;100.00
70546;BME280;58098;51.680;5.134;2022-12-18T04:10:03;102822.66;;;-6.87;100.00
70546;BME280;58098;51.680;5.134;2022-12-18T04:12:31;102804.81;;;-6.92;100.00
70546;BME280;58098;51.680;5.134;2022-12-18T04:14:56;102794.47;;;-6.99;100.00
70546;BME280;58098;51.680;5.134;2022-12-18T04:17:22;102826.00;;;-6.90;100.00
70546;BME280;58098;51.680;5.134;2022-12-18T04:19:47;102812.16;;;-7.02;100.00
70546;BME280;58098;51.680;5.134;2022-12-18T04:22:13;102815.66;;;-6.97;100.00
70546;BME280;58098;51.680;5.134;2022-12-18T04:24:38;102836.03;;;-6.94;100.00
70546;BME280;58098;51.680;5.134;2022-12-18T04:27:03;102822.06;;;-7.11;100.00
70546;BME280;58098;51.680;5.134;2022-12-18T04:29:29;102830.66;;;-7.06;100.00
70546;BME280;58098;51.680;5.134;2022-12-18T04:31:54;102827.16;;;-7.10;100.00
70546;BME280;58098;51.680;5.134;2022-12-18T04:34:20;102846.78;;;-7.03;100.00
70546;BME280;58098;51.680;5.134;2022-12-18T04:36:46;102850.06;;;-7.08;100.00
70546;BME280;58098;51.680;5.134;2022-12-18T04:39:11;102856.00;;;-7.06;100.00
70546;BME280;58098;51.680;5.134;2022-12-18T04:41:36;102859.28;;;-7.10;100.00
70546;BME280;58098;51.680;5.134;2022-12-18T04:44:02;102862.59;;;-7.13;100.00
70546;BME280;58098;51.680;5.134;2022-12-18T04:46:27;102860.78;;;-7.17;100.00
70546;BME280;58098;51.680;5.134;2022-12-18T04:48:52;102865.91;;;-7.15;100.00
70546;BME280;58098;51.680;5.134;2022-12-18T04:51:18;102870.97;;;-7.15;100.00
70546;BME280;58098;51.680;5.134;2022-12-18T04:53:43;102870.91;;;-7.18;100.00
70546;BME280;58098;51.680;5.134;2022-12-18T04:56:11;102862.31;;;-7.23;100.00
70546;BME280;58098;51.680;5.134;2022-12-18T04:58:38;102870.81;;;-7.21;100.00
70546;BME280;58098;51.680;5.134;2022-12-18T05:01:05;102846.78;;;-7.35;100.00
70546;BME280;58098;51.680;5.134;2022-12-18T05:03:30;102861.28;;;-7.30;100.00
70546;BME280;58098;51.680;5.134;2022-12-18T05:05:56;102855.28;;;-7.33;100.00
70546;BME280;58098;51.680;5.134;2022-12-18T05:08:21;102868.84;;;-7.31;100.00
70546;BME280;58098;51.680;5.134;2022-12-18T05:10:46;102857.81;;;-7.35;100.00
70546;BME280;58098;51.680;5.134;2022-12-18T05:13:12;102862.03;;;-7.34;100.00
70546;BME280;58098;51.680;5.134;2022-12-18T05:15:37;102848.34;;;-7.41;100.00
70546;BME280;58098;51.680;5.134;2022-12-18T05:18:03;102848.22;;;-7.45;100.00
70546;BME280;58098;51.680;5.134;2022-12-18T05:20:29;102850.78;;;-7.44;100.00
70546;BME280;58098;51.680;5.134;2022-12-18T05:22:54;102855.06;;;-7.43;100.00
70546;BME280;58098;51.680;5.134;2022-12-18T05:25:21;102849.81;;;-7.49;100.00
70546;BME280;58098;51.680;5.134;2022-12-18T05:27:46;102872.84;;;-7.40;100.00
70546;BME280;58098;51.680;5.134;2022-12-18T05:30:13;102852.31;;;-7.50;100.00
70546;BME280;58098;51.680;5.134;2022-12-18T05:32:39;102851.44;;;-7.51;100.00
70546;BME280;58098;51.680;5.134;2022-12-18T05:35:06;102867.72;;;-7.43;100.00
70546;BME280;58098;51.680;5.134;2022-12-18T05:37:32;102842.88;;;-7.56;100.00
70546;BME280;58098;51.680;5.134;2022-12-18T05:39:57;102853.97;;;-7.52;100.00
70546;BME280;58098;51.680;5.134;2022-12-18T05:42:23;102848.03;;;-7.53;100.00
70546;BME280;58098;51.680;5.134;2022-12-18T05:44:48;102835.16;;;-7.59;100.00
70546;BME280;58098;51.680;5.134;2022-12-18T05:47:14;102848.13;;;-7.50;100.00
70546;BME280;58098;51.680;5.134;2022-12-18T05:49:39;102826.69;;;-7.59;100.00
70546;BME280;58098;51.680;5.134;2022-12-18T05:52:04;102819.97;;;-7.59;100.00
70546;BME280;58098;51.680;5.134;2022-12-18T05:54:30;102821.69;;;-7.58;100.00
70546;BME280;58098;51.680;5.134;2022-12-18T05:56:56;102829.44;;;-7.52;100.00
70546;BME280;58098;51.680;5.134;2022-12-18T05:59:21;102829.53;;;-7.49;100.00
70546;BME280;58098;51.680;5.134;2022-12-18T06:01:47;102831.25;;;-7.48;100.00
70546;BME280;58098;51.680;5.134;2022-12-18T06:04:12;102840.50;;;-7.50;100.00
70546;BME280;58098;51.680;5.134;2022-12-18T06:06:38;102843.88;;;-7.49;100.00
70546;BME280;58098;51.680;5.134;2022-12-18T06:09:03;102837.88;;;-7.53;100.00
70546;BME280;58098;51.680;5.134;2022-12-18T06:11:35;102826.78;;;-7.58;100.00
70546;BME280;58098;51.680;5.134;2022-12-18T06:14:00;102832.59;;;-7.62;100.00
70546;BME280;58098;51.680;5.134;2022-12-18T06:16:30;102842.13;;;-7.52;100.00
70546;BME280;58098;51.680;5.134;2022-12-18T06:18:57;102848.81;;;-7.54;100.00
70546;BME280;58098;51.680;5.134;2022-12-18T06:21:22;102836.00;;;-7.60;100.00
70546;BME280;58098;51.680;5.134;2022-12-18T06:23:48;102823.03;;;-7.70;100.00
70546;BME280;58098;51.680;5.134;2022-12-18T06:26:13;102839.25;;;-7.64;100.00
70546;BME280;58098;51.680;5.134;2022-12-18T06:28:39;102836.59;;;-7.68;100.00
70546;BME280;58098;51.680;5.134;2022-12-18T06:31:06;102834.91;;;-7.69;100.00
70546;BME280;58098;51.680;5.134;2022-12-18T06:33:31;102829.84;;;-7.69;100.00
70546;BME280;58098;51.680;5.134;2022-12-18T06:36:02;102825.53;;;-7.72;100.00
70546;BME280;58098;51.680;5.134;2022-12-18T06:38:28;102814.53;;;-7.72;100.00
70546;BME280;58098;51.680;5.134;2022-12-18T06:40:53;102817.94;;;-7.72;100.00
70546;BME280;58098;51.680;5.134;2022-12-18T06:43:18;102812.91;;;-7.70;100.00
70546;BME280;58098;51.680;5.134;2022-12-18T06:45:44;102806.97;;;-7.71;100.00
70546;BME280;58098;51.680;5.134;2022-12-18T06:48:09;102806.97;;;-7.71;100.00
70546;BME280;58098;51.680;5.134;2022-12-18T06:50:34;102806.91;;;-7.74;100.00
70546;BME280;58098;51.680;5.134;2022-12-18T06:53:00;102790.56;;;-7.83;100.00
70546;BME280;58098;51.680;5.134;2022-12-18T06:55:25;102790.56;;;-7.85;100.00
70546;BME280;58098;51.680;5.134;2022-12-18T06:57:50;102799.16;;;-7.78;100.00
70546;BME280;58098;51.680;5.134;2022-12-18T07:00:16;102794.97;;;-7.78;100.00
70546;BME280;58098;51.680;5.134;2022-12-18T07:02:41;102798.38;;;-7.76;100.00
70546;BME280;58098;51.680;5.134;2022-12-18T07:05:07;102789.81;;;-7.81;100.00
70546;BME280;58098;51.680;5.134;2022-12-18T07:07:34;102789.91;;;-7.78;100.00
70546;BME280;58098;51.680;5.134;2022-12-18T07:09:59;102788.25;;;-7.76;100.00
70546;BME280;58098;51.680;5.134;2022-12-18T07:12:26;102783.13;;;-7.79;100.00
70546;BME280;58098;51.680;5.134;2022-12-18T07:14:52;102780.41;;;-7.85;100.00
70546;BME280;58098;51.680;5.134;2022-12-18T07:17:17;102774.44;;;-7.88;100.00
70546;BME280;58098;51.680;5.134;2022-12-18T07:19:42;102754.03;;;-7.93;100.00
70546;BME280;58098;51.680;5.134;2022-12-18T07:22:08;102762.44;;;-7.94;100.00
70546;BME280;58098;51.680;5.134;2022-12-18T07:24:33;102771.06;;;-7.87;100.00
70546;BME280;58098;51.680;5.134;2022-12-18T07:26:59;102756.53;;;-7.94;100.00
70546;BME280;58098;51.680;5.134;2022-12-18T07:29:24;102756.63;;;-7.91;100.00
70546;BME280;58098;51.680;5.134;2022-12-18T07:31:50;102746.38;;;-7.96;100.00
70546;BME280;58098;51.680;5.134;2022-12-18T07:34:15;102741.31;;;-7.96;100.00
70546;BME280;58098;51.680;5.134;2022-12-18T07:36:41;102731.16;;;-7.96;100.00
70546;BME280;58098;51.680;5.134;2022-12-18T07:39:06;102734.84;;;-7.85;100.00
70546;BME280;58098;51.680;5.134;2022-12-18T07:41:32;102725.50;;;-7.86;100.00
70546;BME280;58098;51.680;5.134;2022-12-18T07:43:57;102707.63;;;-7.92;100.00
70546;BME280;58098;51.680;5.134;2022-12-18T07:46:22;102716.41;;;-7.79;100.00
70546;BME280;58098;51.680;5.134;2022-12-18T07:48:47;102691.78;;;-7.85;100.00
70546;BME280;58098;51.680;5.134;2022-12-18T07:51:13;102691.16;;;-7.76;100.00
70546;BME280;58098;51.680;5.134;2022-12-18T07:53:38;102697.25;;;-7.70;100.00
70546;BME280;58098;51.680;5.134;2022-12-18T07:56:09;102692.97;;;-7.72;100.00
70546;BME280;58098;51.680;5.134;2022-12-18T07:58:36;102698.91;;;-7.70;100.00
70546;BME280;58098;51.680;5.134;2022-12-18T08:01:09;102733.03;;;-7.58;100.00
70546;BME280;58098;51.680;5.134;2022-12-18T08:03:35;102720.06;;;-7.68;100.00
70546;BME280;58098;51.680;5.134;2022-12-18T08:06:01;102737.25;;;-7.57;100.00
70546;BME280;58098;51.680;5.134;2022-12-18T08:08:27;102716.09;;;-7.59;100.00
70546;BME280;58098;51.680;5.134;2022-12-18T08:10:53;102724.75;;;-7.51;100.00
70546;BME280;58098;51.680;5.134;2022-12-18T08:13:18;102730.78;;;-7.46;100.00
70546;BME280;58098;51.680;5.134;2022-12-18T08:15:43;102730.00;;;-7.43;100.00
70546;BME280;58098;51.680;5.134;2022-12-18T08:18:09;102725.06;;;-7.39;100.00
70546;BME280;58098;51.680;5.134;2022-12-18T08:20:34;102716.44;;;-7.45;100.00
70546;BME280;58098;51.680;5.134;2022-12-18T08:22:59;102722.63;;;-7.34;100.00
70546;BME280;58098;51.680;5.134;2022-12-18T08:25:25;102724.53;;;-7.25;100.00
70546;BME280;58098;51.680;5.134;2022-12-18T08:27:50;102729.75;;;-7.19;100.00
70546;BME280;58098;51.680;5.134;2022-12-18T08:30:15;102723.00;;;-7.19;100.00
70546;BME280;58098;51.680;5.134;2022-12-18T08:32:41;102724.78;;;-7.15;100.00
70546;BME280;58098;51.680;5.134;2022-12-18T08:35:06;102707.00;;;-7.16;100.00
70546;BME280;58098;51.680;5.134;2022-12-18T08:37:33;102708.00;;;-7.10;100.00
70546;BME280;58098;51.680;5.134;2022-12-18T08:39:58;102692.78;;;-7.10;100.00
70546;BME280;58098;51.680;5.134;2022-12-18T08:42:24;102696.38;;;-7.00;100.00
70546;BME280;58098;51.680;5.134;2022-12-18T08:45:08;102701.69;;;-6.91;100.00
70546;BME280;58098;51.680;5.134;2022-12-18T08:47:33;102712.00;;;-6.82;100.00
70546;BME280;58098;51.680;5.134;2022-12-18T08:49:59;102697.59;;;-6.83;100.00
70546;BME280;58098;51.680;5.134;2022-12-18T08:52:24;102710.63;;;-6.68;100.00
70546;BME280;58098;51.680;5.134;2022-12-18T08:54:49;102703.97;;;-6.63;100.00
70546;BME280;58098;51.680;5.134;2022-12-18T08:57:14;102695.59;;;-6.59;100.00
70546;BME280;58098;51.680;5.134;2022-12-18T08:59:40;102712.00;;;-6.43;100.00
70546;BME280;58098;51.680;5.134;2022-12-18T09:02:05;102712.03;;;-6.42;100.00
70546;BME280;58098;51.680;5.134;2022-12-18T09:04:30;102716.47;;;-6.32;100.00
70546;BME280;58098;51.680;5.134;2022-12-18T09:06:56;102724.22;;;-6.26;100.00
70546;BME280;58098;51.680;5.134;2022-12-18T09:09:21;102737.19;;;-6.11;100.00
70546;BME280;58098;51.680;5.134;2022-12-18T09:11:46;102741.53;;;-6.07;100.00
70546;BME280;58098;51.680;5.134;2022-12-18T09:14:12;102733.06;;;-6.06;100.00
70546;BME280;58098;51.680;5.134;2022-12-18T09:16:37;102751.16;;;-5.90;100.00
70546;BME280;58098;51.680;5.134;2022-12-18T09:19:04;102750.41;;;-5.83;100.00
70546;BME280;58098;51.680;5.134;2022-12-18T09:21:31;102719.03;;;-5.87;100.00
70546;BME280;58098;51.680;5.134;2022-12-18T09:23:57;102723.44;;;-5.75;100.00
70546;BME280;58098;51.680;5.134;2022-12-18T09:26:23;102700.44;;;-5.83;100.00
70546;BME280;58098;51.680;5.134;2022-12-18T09:28:50;102706.75;;;-5.61;100.00
70546;BME280;58098;51.680;5.134;2022-12-18T09:31:16;102698.38;;;-5.56;100.00
70546;BME280;58098;51.680;5.134;2022-12-18T09:33:42;102691.78;;;-5.45;100.00
70546;BME280;58098;51.680;5.134;2022-12-18T09:36:10;102697.00;;;-5.37;100.00
70546;BME280;58098;51.680;5.134;2022-12-18T09:38:36;102697.09;;;-5.31;100.00
70546;BME280;58098;51.680;5.134;2022-12-18T09:41:46;102693.00;;;-5.21;100.00
70546;BME280;58098;51.680;5.134;2022-12-18T09:44:32;102674.41;;;-5.17;100.00
70546;BME280;58098;51.680;5.134;2022-12-18T09:47:23;102677.19;;;-5.02;100.00
70546;BME280;58098;51.680;5.134;2022-12-18T09:49:53;102667.06;;;-4.99;100.00
70546;BME280;58098;51.680;5.134;2022-12-18T09:52:37;102685.88;;;-4.87;100.00
70546;BME280;58098;51.680;5.134;2022-12-18T09:57:56;102682.88;;;-4.58;100.00
70546;BME280;58098;51.680;5.134;2022-12-18T10:00:24;102685.56;;;-4.48;100.00
70546;BME280;58098;51.680;5.134;2022-12-18T10:02:51;102682.25;;;-4.38;100.00
70546;BME280;58098;51.680;5.134;2022-12-18T10:05:35;102676.41;;;-4.32;100.00
70546;BME280;58098;51.680;5.134;2022-12-18T10:08:11;102696.94;;;-4.17;100.00
70546;BME280;58098;51.680;5.134;2022-12-18T10:11:13;102692.81;;;-4.06;100.00
70546;BME280;58098;51.680;5.134;2022-12-18T10:13:52;102687.84;;;-3.97;100.00
70546;BME280;58098;51.680;5.134;2022-12-18T10:16:47;102686.22;;;-3.87;100.00
70546;BME280;58098;51.680;5.134;2022-12-18T10:25:01;102652.38;;;-3.73;100.00
70546;BME280;58098;51.680;5.134;2022-12-18T10:27:29;102668.66;;;-3.59;100.00
70546;BME280;58098;51.680;5.134;2022-12-18T10:29:56;102653.38;;;-3.56;100.00
70546;BME280;58098;51.680;5.134;2022-12-18T10:32:26;102625.28;;;-3.59;100.00
70546;BME280;58098;51.680;5.134;2022-12-18T10:34:54;102643.28;;;-3.44;100.00
70546;BME280;58098;51.680;5.134;2022-12-18T10:37:22;102633.94;;;-3.39;100.00
70546;BME280;58098;51.680;5.134;2022-12-18T10:40:07;102622.91;;;-3.35;100.00
70546;BME280;58098;51.680;5.134;2022-12-18T10:42:32;102612.75;;;-3.31;100.00
70546;BME280;58098;51.680;5.134;2022-12-18T10:45:10;102616.19;;;-3.20;100.00
70546;BME280;58098;51.680;5.134;2022-12-18T10:47:36;102611.06;;;-3.25;100.00
70546;BME280;58098;51.680;5.134;2022-12-18T10:50:19;102619.66;;;-3.12;100.00
70546;BME280;58098;51.680;5.134;2022-12-18T10:53:02;102612.03;;;-3.09;100.00
70546;BME280;58098;51.680;5.134;2022-12-18T10:55:37;102606.97;;;-3.02;100.00
70546;BME280;58098;51.680;5.134;2022-12-18T10:58:24;102607.84;;;-2.95;100.00
70546;BME280;58098;51.680;5.134;2022-12-18T11:01:15;102617.25;;;-2.90;100.00
70546;BME280;58098;51.680;5.134;2022-12-18T11:03:58;102608.72;;;-2.84;100.00
70546;BME280;58098;51.680;5.134;2022-12-18T11:06:24;102591.69;;;-2.87;100.00
70546;BME280;58098;51.680;5.134;2022-12-18T11:09:20;102607.09;;;-2.69;100.00
70546;BME280;58098;51.680;5.134;2022-12-18T11:11:54;102601.13;;;-2.72;100.00
70546;BME280;58098;51.680;5.134;2022-12-18T11:14:26;102586.63;;;-2.75;100.00
70546;BME280;58098;51.680;5.134;2022-12-18T11:16:52;102590.06;;;-2.67;100.00
70546;BME280;58098;51.680;5.134;2022-12-18T11:19:32;102592.66;;;-2.53;100.00
70546;BME280;58098;51.680;5.134;2022-12-18T11:22:00;102582.44;;;-2.53;100.00
70546;BME280;58098;51.680;5.134;2022-12-18T11:24:33;102593.53;;;-2.48;100.00
70546;BME280;58098;51.680;5.134;2022-12-18T11:27:05;102582.50;;;-2.44;100.00
70546;BME280;58098;51.680;5.134;2022-12-18T11:29:39;102585.91;;;-2.39;100.00
70546;BME280;58098;51.680;5.134;2022-12-18T11:32:38;102594.44;;;-2.31;100.00
70546;BME280;58098;51.680;5.134;2022-12-18T11:37:43;102585.06;;;-2.27;100.00
70546;BME280;58098;51.680;5.134;2022-12-18T11:40:19;102597.00;;;-2.20;100.00
70546;BME280;58098;51.680;5.134;2022-12-18T11:42:58;102571.44;;;-2.20;100.00
70546;BME280;58098;51.680;5.134;2022-12-18T11:45:29;102578.28;;;-2.13;100.00
70546;BME280;58098;51.680;5.134;2022-12-18T11:48:16;102585.09;;;-1.98;100.00
70546;BME280;58098;51.680;5.134;2022-12-18T11:50:52;102577.44;;;-1.98;100.00
70546;BME280;58098;51.680;5.134;2022-12-18T11:53:18;102580.84;;;-1.93;100.00
70546;BME280;58098;51.680;5.134;2022-12-18T11:58:31;102551.00;;;-1.94;100.00
70546;BME280;58098;51.680;5.134;2022-12-18T12:01:16;102551.84;;;-1.89;100.00
70546;BME280;58098;51.680;5.134;2022-12-18T12:09:35;102510.94;;;-1.82;100.00
70546;BME280;58098;51.680;5.134;2022-12-18T12:15:26;102519.44;;;-1.72;100.00
70546;BME280;58098;51.680;5.134;2022-12-18T12:18:01;102510.09;;;-1.78;100.00
70546;BME280;58098;51.680;5.134;2022-12-18T12:20:47;102507.50;;;-1.70;100.00
70546;BME280;58098;51.680;5.134;2022-12-18T12:26:04;102498.97;;;-1.66;100.00
70546;BME280;58098;51.680;5.134;2022-12-18T12:29:09;102498.97;;;-1.62;100.00
70546;BME280;58098;51.680;5.134;2022-12-18T12:31:51;102499.81;;;-1.60;100.00
70546;BME280;58098;51.680;5.134;2022-12-18T12:40:21;102462.28;;;-1.62;100.00
70546;BME280;58098;51.680;5.134;2022-12-18T12:42:54;102463.97;;;-1.55;100.00
70546;BME280;58098;51.680;5.134;2022-12-18T12:46:12;102478.44;;;-1.48;100.00
70546;BME280;58098;51.680;5.134;2022-12-18T12:48:51;102463.97;;;-1.49;100.00
70546;BME280;58098;51.680;5.134;2022-12-18T12:51:25;102470.78;;;-1.50;100.00
70546;BME280;58098;51.680;5.134;2022-12-18T12:53:51;102463.13;;;-1.51;100.00
70546;BME280;58098;51.680;5.134;2022-12-18T12:56:19;102458.84;;;-1.51;100.00
70546;BME280;58098;51.680;5.134;2022-12-18T13:01:41;102447.75;;;-1.56;100.00
70546;BME280;58098;51.680;5.134;2022-12-18T13:04:23;102448.63;;;-1.55;100.00
70546;BME280;58098;51.680;5.134;2022-12-18T13:07:01;102454.56;;;-1.47;100.00
70546;BME280;58098;51.680;5.134;2022-12-18T13:09:33;102434.97;;;-1.60;100.00
70546;BME280;58098;51.680;5.134;2022-12-18T13:12:04;102442.63;;;-1.53;100.00
70546;BME280;58098;51.680;5.134;2022-12-18T13:15:12;102456.28;;;-1.46;100.00
70546;BME280;58098;51.680;5.134;2022-12-18T13:17:45;102451.16;;;-1.49;100.00
70546;BME280;58098;51.680;5.134;2022-12-18T13:20:13;102452.84;;;-1.48;100.00
70546;BME280;58098;51.680;5.134;2022-12-18T13:22:47;102442.63;;;-1.45;100.00
70546;BME280;58098;51.680;5.134;2022-12-18T13:25:29;102451.16;;;-1.45;100.00
70546;BME280;58098;51.680;5.134;2022-12-18T13:38:22;102428.97;;;-1.47;100.00
70546;BME280;58098;51.680;5.134;2022-12-18T13:48:29;102417.91;;;-1.52;100.00
70546;BME280;58098;51.680;5.134;2022-12-18T13:53:51;102405.94;;;-1.47;100.00
70546;BME280;58098;51.680;5.134;2022-12-18T13:56:27;102396.56;;;-1.48;100.00
70546;BME280;58098;51.680;5.134;2022-12-18T14:01:33;102385.50;;;-1.58;100.00
70546;BME280;58098;51.680;5.134;2022-12-18T14:04:28;102405.06;;;-1.43;100.00
70546;BME280;58098;51.680;5.134;2022-12-18T14:07:03;102398.25;;;-1.47;100.00
70546;BME280;58098;51.680;5.134;2022-12-18T14:09:31;102391.44;;;-1.50;100.00